sensor_id;sensor_type;location;lat;lon;timestamp;P1;durP1;ratioP1;P2;durP2;ratioP2
76964;SDS011;65903;51.452;7.198;2023-08-12T00:00:18;21.48;;;13.43;;
76964;SDS011;65903;51.452;7.198;2023-08-12T00:01:20;19.92;;;13.55;;
76964;SDS011;65903;51.452;7.198;2023-08-12T00:02:22;21.15;;;14.13;;
76964;SDS011;65903;51.452;7.198;2023-08-12T00:03:24;17.70;;;12.38;;
76964;SDS011;65903;51.452;7.198;2023-08-12T00:04:26;18.10;;;13.15;;
76964;SDS011;65903;51.452;7.198;2023-08-12T00:05:28;18.67;;;12.30;;
76964;SDS011;65903;51.452;7.198;2023-08-12T00:06:30;19.05;;;13.10;;
76964;SDS011;65903;51.452;7.198;2023-08-12T00:07:32;22.33;;;14.25;;
76964;SDS011;65903;51.452;7.198;2023-08-12T00:08:33;17.65;;;12.60;;
76964;SDS011;65903;51.452;7.198;2023-08-12T00:09:34;17.42;;;11.93;;
76964;SDS011;65903;51.452;7.198;2023-08-12T00:10:35;21.35;;;13.55;;
76964;SDS011;65903;51.452;7.198;2023-08-12T00:11:37;24.58;;;15.13;;
76964;SDS011;65903;51.452;7.198;2023-08-12T00:12:38;18.65;;;13.48;;
76964;SDS011;65903;51.452;7.198;2023-08-12T00:13:39;20.92;;;13.48;;
76964;SDS011;65903;51.452;7.198;2023-08-12T00:14:41;19.88;;;13.75;;
76964;SDS011;65903;51.452;7.198;2023-08-12T00:15:42;21.10;;;12.70;;
76964;SDS011;65903;51.452;7.198;2023-08-12T00:16:44;20.55;;;12.95;;
76964;SDS011;65903;51.452;7.198;2023-08-12T00:17:45;19.38;;;12.52;;
76964;SDS011;65903;51.452;7.198;2023-08-12T00:18:45;21.50;;;14.85;;
76964;SDS011;65903;51.452;7.198;2023-08-12T00:19:46;20.30;;;13.10;;
76964;SDS011;65903;51.452;7.198;2023-08-12T00:20:49;18.17;;;12.23;;
76964;SDS011;65903;51.452;7.198;2023-08-12T00:21:50;19.67;;;14.32;;
76964;SDS011;65903;51.452;7.198;2023-08-12T00:22:53;21.67;;;13.40;;
76964;SDS011;65903;51.452;7.198;2023-08-12T00:23:54;18.85;;;13.63;;
76964;SDS011;65903;51.452;7.198;2023-08-12T00:24:56;18.75;;;12.45;;
76964;SDS011;65903;51.452;7.198;2023-08-12T00:25:57;20.70;;;12.43;;
76964;SDS011;65903;51.452;7.198;2023-08-12T00:26:59;22.17;;;13.82;;
76964;SDS011;65903;51.452;7.198;2023-08-12T00:28:01;21.98;;;14.10;;
76964;SDS011;65903;51.452;7.198;2023-08-12T00:29:02;21.52;;;15.23;;
76964;SDS011;65903;51.452;7.198;2023-08-12T00:30:04;21.13;;;13.10;;
76964;SDS011;65903;51.452;7.198;2023-08-12T00:31:06;20.33;;;14.00;;
76964;SDS011;65903;51.452;7.198;2023-08-12T00:32:08;20.48;;;12.52;;
76964;SDS011;65903;51.452;7.198;2023-08-12T00:33:09;21.60;;;13.82;;
76964;SDS011;65903;51.452;7.198;2023-08-12T00:34:10;20.73;;;13.75;;
76964;SDS011;65903;51.452;7.198;2023-08-12T00:35:11;21.48;;;13.23;;
76964;SDS011;65903;51.452;7.198;2023-08-12T00:36:13;25.23;;;14.32;;
76964;SDS011;65903;51.452;7.198;2023-08-12T00:37:13;24.60;;;15.43;;
76964;SDS011;65903;51.452;7.198;2023-08-12T00:38:15;22.48;;;14.20;;
76964;SDS011;65903;51.452;7.198;2023-08-12T00:39:16;21.58;;;13.38;;
76964;SDS011;65903;51.452;7.198;2023-08-12T00:40:17;20.23;;;13.52;;
76964;SDS011;65903;51.452;7.198;2023-08-12T00:41:17;18.52;;;13.20;;
76964;SDS011;65903;51.452;7.198;2023-08-12T00:42:19;19.20;;;12.73;;
76964;SDS011;65903;51.452;7.198;2023-08-12T00:43:20;19.25;;;12.98;;
76964;SDS011;65903;51.452;7.198;2023-08-12T00:44:20;18.52;;;13.52;;
76964;SDS011;65903;51.452;7.198;2023-08-12T00:45:21;18.02;;;14.20;;
76964;SDS011;65903;51.452;7.198;2023-08-12T00:46:22;23.30;;;14.13;;
76964;SDS011;65903;51.452;7.198;2023-08-12T00:47:26;19.42;;;13.07;;
76964;SDS011;65903;51.452;7.198;2023-08-12T00:48:28;20.17;;;13.88;;
76964;SDS011;65903;51.452;7.198;2023-08-12T00:49:30;18.98;;;12.45;;
76964;SDS011;65903;51.452;7.198;2023-08-12T00:50:32;20.55;;;12.77;;
76964;SDS011;65903;51.452;7.198;2023-08-12T00:51:34;19.75;;;13.93;;
76964;SDS011;65903;51.452;7.198;2023-08-12T00:52:36;18.58;;;12.43;;
76964;SDS011;65903;51.452;7.198;2023-08-12T00:53:37;21.45;;;14.15;;
76964;SDS011;65903;51.452;7.198;2023-08-12T00:54:39;19.83;;;13.20;;
76964;SDS011;65903;51.452;7.198;2023-08-12T00:55:40;18.30;;;12.32;;
76964;SDS011;65903;51.452;7.198;2023-08-12T00:56:42;21.92;;;13.15;;
76964;SDS011;65903;51.452;7.198;2023-08-12T00:57:43;23.65;;;14.80;;
76964;SDS011;65903;51.452;7.198;2023-08-12T00:58:45;20.02;;;13.48;;
76964;SDS011;65903;51.452;7.198;2023-08-12T00:59:46;23.55;;;14.32;;
76964;SDS011;65903;51.452;7.198;2023-08-12T01:00:48;20.13;;;12.98;;
76964;SDS011;65903;51.452;7.198;2023-08-12T01:01:49;24.42;;;14.35;;
76964;SDS011;65903;51.452;7.198;2023-08-12T01:02:52;18.10;;;12.88;;
76964;SDS011;65903;51.452;7.198;2023-08-12T01:03:53;21.15;;;14.60;;
76964;SDS011;65903;51.452;7.198;2023-08-12T01:04:53;21.23;;;13.75;;
76964;SDS011;65903;51.452;7.198;2023-08-12T01:05:54;18.92;;;12.73;;
76964;SDS011;65903;51.452;7.198;2023-08-12T01:06:56;20.33;;;13.23;;
76964;SDS011;65903;51.452;7.198;2023-08-12T01:07:57;18.33;;;13.75;;
76964;SDS011;65903;51.452;7.198;2023-08-12T01:08:58;20.60;;;13.57;;
76964;SDS011;65903;51.452;7.198;2023-08-12T01:10:02;19.80;;;13.98;;
76964;SDS011;65903;51.452;7.198;2023-08-12T01:11:12;20.55;;;12.95;;
76964;SDS011;65903;51.452;7.198;2023-08-12T01:12:18;20.23;;;13.90;;
76964;SDS011;65903;51.452;7.198;2023-08-12T01:14:39;21.58;;;13.23;;
76964;SDS011;65903;51.452;7.198;2023-08-12T01:15:52;19.80;;;12.93;;
76964;SDS011;65903;51.452;7.198;2023-08-12T01:16:57;20.33;;;13.18;;
76964;SDS011;65903;51.452;7.198;2023-08-12T01:18:01;21.45;;;13.50;;
76964;SDS011;65903;51.452;7.198;2023-08-12T01:19:04;22.30;;;13.65;;
76964;SDS011;65903;51.452;7.198;2023-08-12T01:20:06;22.63;;;13.75;;
76964;SDS011;65903;51.452;7.198;2023-08-12T01:21:15;21.85;;;14.10;;
76964;SDS011;65903;51.452;7.198;2023-08-12T01:22:18;25.92;;;14.57;;
76964;SDS011;65903;51.452;7.198;2023-08-12T01:23:22;21.10;;;13.80;;
76964;SDS011;65903;51.452;7.198;2023-08-12T01:24:24;24.15;;;14.82;;
76964;SDS011;65903;51.452;7.198;2023-08-12T01:25:25;22.27;;;14.05;;
76964;SDS011;65903;51.452;7.198;2023-08-12T01:26:26;19.52;;;14.27;;
76964;SDS011;65903;51.452;7.198;2023-08-12T01:27:28;24.27;;;14.38;;
76964;SDS011;65903;51.452;7.198;2023-08-12T01:28:30;24.13;;;14.50;;
76964;SDS011;65903;51.452;7.198;2023-08-12T01:29:31;21.65;;;14.38;;
76964;SDS011;65903;51.452;7.198;2023-08-12T01:30:39;23.02;;;14.95;;
76964;SDS011;65903;51.452;7.198;2023-08-12T01:31:51;25.75;;;16.10;;
76964;SDS011;65903;51.452;7.198;2023-08-12T01:33:16;21.83;;;15.32;;
76964;SDS011;65903;51.452;7.198;2023-08-12T01:34:33;21.50;;;13.85;;
76964;SDS011;65903;51.452;7.198;2023-08-12T01:35:43;22.75;;;13.93;;
76964;SDS011;65903;51.452;7.198;2023-08-12T01:36:51;24.20;;;15.23;;
76964;SDS011;65903;51.452;7.198;2023-08-12T01:37:56;23.85;;;15.02;;
76964;SDS011;65903;51.452;7.198;2023-08-12T01:40:01;22.15;;;14.82;;
76964;SDS011;65903;51.452;7.198;2023-08-12T01:41:06;26.48;;;14.77;;
76964;SDS011;65903;51.452;7.198;2023-08-12T01:42:08;26.73;;;15.15;;
76964;SDS011;65903;51.452;7.198;2023-08-12T01:43:09;24.90;;;15.23;;
76964;SDS011;65903;51.452;7.198;2023-08-12T01:44:11;25.25;;;15.15;;
76964;SDS011;65903;51.452;7.198;2023-08-12T01:45:12;27.08;;;15.88;;
76964;SDS011;65903;51.452;7.198;2023-08-12T01:46:14;27.10;;;16.55;;
76964;SDS011;65903;51.452;7.198;2023-08-12T01:47:15;23.33;;;14.70;;
76964;SDS011;65903;51.452;7.198;2023-08-12T01:48:16;24.27;;;15.30;;
76964;SDS011;65903;51.452;7.198;2023-08-12T01:49:20;25.35;;;15.90;;
76964;SDS011;65903;51.452;7.198;2023-08-12T01:50:24;27.30;;;16.85;;
76964;SDS011;65903;51.452;7.198;2023-08-12T01:51:26;25.77;;;15.57;;
76964;SDS011;65903;51.452;7.198;2023-08-12T01:52:27;29.35;;;18.25;;
76964;SDS011;65903;51.452;7.198;2023-08-12T01:53:32;29.08;;;18.15;;
76964;SDS011;65903;51.452;7.198;2023-08-12T01:54:33;24.98;;;15.73;;
76964;SDS011;65903;51.452;7.198;2023-08-12T01:55:36;29.55;;;18.10;;
76964;SDS011;65903;51.452;7.198;2023-08-12T01:56:37;24.65;;;15.73;;
76964;SDS011;65903;51.452;7.198;2023-08-12T01:57:38;27.38;;;17.00;;
76964;SDS011;65903;51.452;7.198;2023-08-12T01:58:40;29.65;;;18.42;;
76964;SDS011;65903;51.452;7.198;2023-08-12T01:59:41;27.27;;;16.58;;
76964;SDS011;65903;51.452;7.198;2023-08-12T02:00:44;30.95;;;19.67;;
76964;SDS011;65903;51.452;7.198;2023-08-12T02:01:45;26.98;;;17.73;;
76964;SDS011;65903;51.452;7.198;2023-08-12T02:02:46;25.80;;;16.50;;
76964;SDS011;65903;51.452;7.198;2023-08-12T02:03:46;25.98;;;17.52;;
76964;SDS011;65903;51.452;7.198;2023-08-12T02:04:47;26.67;;;16.63;;
76964;SDS011;65903;51.452;7.198;2023-08-12T02:05:48;25.73;;;15.88;;
76964;SDS011;65903;51.452;7.198;2023-08-12T02:06:49;29.13;;;17.13;;
76964;SDS011;65903;51.452;7.198;2023-08-12T02:07:50;26.92;;;19.27;;
76964;SDS011;65903;51.452;7.198;2023-08-12T02:08:51;30.05;;;18.23;;
76964;SDS011;65903;51.452;7.198;2023-08-12T02:09:52;30.23;;;17.23;;
76964;SDS011;65903;51.452;7.198;2023-08-12T02:10:53;27.67;;;17.67;;
76964;SDS011;65903;51.452;7.198;2023-08-12T02:11:56;32.35;;;18.40;;
76964;SDS011;65903;51.452;7.198;2023-08-12T02:12:57;26.42;;;15.90;;
76964;SDS011;65903;51.452;7.198;2023-08-12T02:13:58;27.67;;;17.25;;
76964;SDS011;65903;51.452;7.198;2023-08-12T02:14:59;27.83;;;18.23;;
76964;SDS011;65903;51.452;7.198;2023-08-12T02:16:01;25.48;;;16.15;;
76964;SDS011;65903;51.452;7.198;2023-08-12T02:17:02;28.90;;;17.55;;
76964;SDS011;65903;51.452;7.198;2023-08-12T02:18:06;34.80;;;20.77;;
76964;SDS011;65903;51.452;7.198;2023-08-12T02:19:08;28.80;;;17.98;;
76964;SDS011;65903;51.452;7.198;2023-08-12T02:20:10;27.95;;;17.80;;
76964;SDS011;65903;51.452;7.198;2023-08-12T02:21:11;28.50;;;17.30;;
76964;SDS011;65903;51.452;7.198;2023-08-12T02:22:12;27.60;;;16.95;;
76964;SDS011;65903;51.452;7.198;2023-08-12T02:23:13;30.45;;;17.15;;
76964;SDS011;65903;51.452;7.198;2023-08-12T02:24:14;31.35;;;18.08;;
76964;SDS011;65903;51.452;7.198;2023-08-12T02:25:15;29.65;;;18.85;;
76964;SDS011;65903;51.452;7.198;2023-08-12T02:26:18;28.73;;;17.33;;
76964;SDS011;65903;51.452;7.198;2023-08-12T02:27:19;27.92;;;18.35;;
76964;SDS011;65903;51.452;7.198;2023-08-12T02:28:20;29.40;;;17.67;;
76964;SDS011;65903;51.452;7.198;2023-08-12T02:29:21;31.10;;;18.17;;
76964;SDS011;65903;51.452;7.198;2023-08-12T02:30:22;26.70;;;16.63;;
76964;SDS011;65903;51.452;7.198;2023-08-12T02:31:24;25.13;;;17.42;;
76964;SDS011;65903;51.452;7.198;2023-08-12T02:32:25;25.58;;;15.95;;
76964;SDS011;65903;51.452;7.198;2023-08-12T02:33:26;28.88;;;17.90;;
76964;SDS011;65903;51.452;7.198;2023-08-12T02:34:27;29.98;;;16.58;;
76964;SDS011;65903;51.452;7.198;2023-08-12T02:35:29;28.85;;;17.05;;
76964;SDS011;65903;51.452;7.198;2023-08-12T02:36:31;26.40;;;16.88;;
76964;SDS011;65903;51.452;7.198;2023-08-12T02:37:32;28.48;;;16.90;;
76964;SDS011;65903;51.452;7.198;2023-08-12T02:38:34;27.05;;;17.92;;
76964;SDS011;65903;51.452;7.198;2023-08-12T02:39:35;28.65;;;17.73;;
76964;SDS011;65903;51.452;7.198;2023-08-12T02:40:36;24.63;;;16.60;;
76964;SDS011;65903;51.452;7.198;2023-08-12T02:41:38;31.30;;;19.40;;
76964;SDS011;65903;51.452;7.198;2023-08-12T02:42:39;29.75;;;17.42;;
76964;SDS011;65903;51.452;7.198;2023-08-12T02:43:41;26.38;;;17.65;;
76964;SDS011;65903;51.452;7.198;2023-08-12T02:44:43;28.20;;;15.85;;
76964;SDS011;65903;51.452;7.198;2023-08-12T02:45:44;28.67;;;17.98;;
76964;SDS011;65903;51.452;7.198;2023-08-12T02:46:46;24.70;;;17.08;;
76964;SDS011;65903;51.452;7.198;2023-08-12T02:47:46;27.52;;;17.23;;
76964;SDS011;65903;51.452;7.198;2023-08-12T02:48:48;32.15;;;19.42;;
76964;SDS011;65903;51.452;7.198;2023-08-12T02:49:49;27.75;;;18.55;;
76964;SDS011;65903;51.452;7.198;2023-08-12T02:50:50;26.70;;;17.13;;
76964;SDS011;65903;51.452;7.198;2023-08-12T02:51:51;26.80;;;16.80;;
76964;SDS011;65903;51.452;7.198;2023-08-12T02:52:52;24.02;;;17.10;;
76964;SDS011;65903;51.452;7.198;2023-08-12T02:53:53;29.33;;;17.10;;
76964;SDS011;65903;51.452;7.198;2023-08-12T02:54:54;26.52;;;17.02;;
76964;SDS011;65903;51.452;7.198;2023-08-12T02:55:56;24.73;;;15.77;;
76964;SDS011;65903;51.452;7.198;2023-08-12T02:56:57;24.38;;;16.00;;
76964;SDS011;65903;51.452;7.198;2023-08-12T02:57:59;24.20;;;15.70;;
76964;SDS011;65903;51.452;7.198;2023-08-12T02:59:00;26.95;;;18.15;;
76964;SDS011;65903;51.452;7.198;2023-08-12T03:00:02;22.42;;;15.45;;
76964;SDS011;65903;51.452;7.198;2023-08-12T03:01:04;26.83;;;16.08;;
76964;SDS011;65903;51.452;7.198;2023-08-12T03:02:05;24.67;;;15.35;;
76964;SDS011;65903;51.452;7.198;2023-08-12T03:03:06;24.75;;;16.00;;
76964;SDS011;65903;51.452;7.198;2023-08-12T03:04:07;23.48;;;15.55;;
76964;SDS011;65903;51.452;7.198;2023-08-12T03:05:09;26.08;;;15.23;;
76964;SDS011;65903;51.452;7.198;2023-08-12T03:06:10;21.55;;;15.55;;
76964;SDS011;65903;51.452;7.198;2023-08-12T03:07:11;23.63;;;14.90;;
76964;SDS011;65903;51.452;7.198;2023-08-12T03:08:15;22.50;;;16.08;;
76964;SDS011;65903;51.452;7.198;2023-08-12T03:09:16;23.60;;;15.57;;
76964;SDS011;65903;51.452;7.198;2023-08-12T03:10:19;22.23;;;13.85;;
76964;SDS011;65903;51.452;7.198;2023-08-12T03:11:20;21.30;;;13.82;;
76964;SDS011;65903;51.452;7.198;2023-08-12T03:12:21;19.95;;;13.30;;
76964;SDS011;65903;51.452;7.198;2023-08-12T03:13:22;22.10;;;16.67;;
76964;SDS011;65903;51.452;7.198;2023-08-12T03:14:23;25.65;;;15.88;;
76964;SDS011;65903;51.452;7.198;2023-08-12T03:15:24;23.10;;;14.90;;
76964;SDS011;65903;51.452;7.198;2023-08-12T03:16:26;20.38;;;13.45;;
76964;SDS011;65903;51.452;7.198;2023-08-12T03:17:27;21.02;;;12.73;;
76964;SDS011;65903;51.452;7.198;2023-08-12T03:18:29;22.75;;;15.23;;
76964;SDS011;65903;51.452;7.198;2023-08-12T03:19:30;20.88;;;13.90;;
76964;SDS011;65903;51.452;7.198;2023-08-12T03:20:31;19.00;;;13.40;;
76964;SDS011;65903;51.452;7.198;2023-08-12T03:21:32;22.23;;;13.85;;
76964;SDS011;65903;51.452;7.198;2023-08-12T03:22:36;23.70;;;14.63;;
76964;SDS011;65903;51.452;7.198;2023-08-12T03:23:38;18.80;;;12.95;;
76964;SDS011;65903;51.452;7.198;2023-08-12T03:24:39;19.23;;;12.95;;
76964;SDS011;65903;51.452;7.198;2023-08-12T03:25:42;21.23;;;15.05;;
76964;SDS011;65903;51.452;7.198;2023-08-12T03:26:42;18.50;;;13.23;;
76964;SDS011;65903;51.452;7.198;2023-08-12T03:27:45;19.65;;;13.93;;
76964;SDS011;65903;51.452;7.198;2023-08-12T03:28:46;18.45;;;12.52;;
76964;SDS011;65903;51.452;7.198;2023-08-12T03:29:47;21.33;;;13.38;;
76964;SDS011;65903;51.452;7.198;2023-08-12T03:30:51;22.00;;;13.63;;
76964;SDS011;65903;51.452;7.198;2023-08-12T03:31:54;19.70;;;13.68;;
76964;SDS011;65903;51.452;7.198;2023-08-12T03:32:55;24.17;;;14.43;;
76964;SDS011;65903;51.452;7.198;2023-08-12T03:33:56;18.10;;;12.20;;
76964;SDS011;65903;51.452;7.198;2023-08-12T03:34:58;19.75;;;14.57;;
76964;SDS011;65903;51.452;7.198;2023-08-12T03:35:59;19.73;;;13.40;;
76964;SDS011;65903;51.452;7.198;2023-08-12T03:37:00;20.58;;;13.73;;
76964;SDS011;65903;51.452;7.198;2023-08-12T03:38:01;19.10;;;12.93;;
76964;SDS011;65903;51.452;7.198;2023-08-12T03:39:02;19.90;;;12.50;;
76964;SDS011;65903;51.452;7.198;2023-08-12T03:40:03;24.52;;;14.27;;
76964;SDS011;65903;51.452;7.198;2023-08-12T03:41:05;22.20;;;13.43;;
76964;SDS011;65903;51.452;7.198;2023-08-12T03:42:06;20.25;;;14.05;;
76964;SDS011;65903;51.452;7.198;2023-08-12T03:43:07;18.60;;;12.95;;
76964;SDS011;65903;51.452;7.198;2023-08-12T03:44:08;18.85;;;12.82;;
76964;SDS011;65903;51.452;7.198;2023-08-12T03:45:09;20.55;;;14.43;;
76964;SDS011;65903;51.452;7.198;2023-08-12T03:46:10;22.40;;;13.55;;
76964;SDS011;65903;51.452;7.198;2023-08-12T03:47:11;17.70;;;12.63;;
76964;SDS011;65903;51.452;7.198;2023-08-12T03:48:12;21.65;;;13.90;;
76964;SDS011;65903;51.452;7.198;2023-08-12T03:49:14;19.17;;;13.35;;
76964;SDS011;65903;51.452;7.198;2023-08-12T03:50:15;21.17;;;12.98;;
76964;SDS011;65903;51.452;7.198;2023-08-12T03:51:15;23.25;;;14.02;;
76964;SDS011;65903;51.452;7.198;2023-08-12T03:52:16;22.35;;;13.05;;
76964;SDS011;65903;51.452;7.198;2023-08-12T03:53:17;18.42;;;13.00;;
76964;SDS011;65903;51.452;7.198;2023-08-12T03:54:18;22.52;;;14.43;;
76964;SDS011;65903;51.452;7.198;2023-08-12T03:55:19;20.63;;;13.75;;
76964;SDS011;65903;51.452;7.198;2023-08-12T03:56:22;18.50;;;12.20;;
76964;SDS011;65903;51.452;7.198;2023-08-12T03:57:22;19.25;;;14.15;;
76964;SDS011;65903;51.452;7.198;2023-08-12T03:58:24;17.85;;;12.38;;
76964;SDS011;65903;51.452;7.198;2023-08-12T03:59:25;22.13;;;12.93;;
76964;SDS011;65903;51.452;7.198;2023-08-12T04:00:26;19.90;;;14.40;;
76964;SDS011;65903;51.452;7.198;2023-08-12T04:01:28;20.73;;;12.95;;
76964;SDS011;65903;51.452;7.198;2023-08-12T04:02:30;18.17;;;12.20;;
76964;SDS011;65903;51.452;7.198;2023-08-12T04:03:31;17.95;;;13.15;;
76964;SDS011;65903;51.452;7.198;2023-08-12T04:04:32;21.33;;;13.23;;
76964;SDS011;65903;51.452;7.198;2023-08-12T04:05:33;18.05;;;13.13;;
76964;SDS011;65903;51.452;7.198;2023-08-12T04:06:35;18.38;;;12.65;;
76964;SDS011;65903;51.452;7.198;2023-08-12T04:07:38;21.10;;;13.70;;
76964;SDS011;65903;51.452;7.198;2023-08-12T04:08:39;21.13;;;12.82;;
76964;SDS011;65903;51.452;7.198;2023-08-12T04:09:41;18.10;;;13.95;;
76964;SDS011;65903;51.452;7.198;2023-08-12T04:10:44;23.58;;;15.18;;
76964;SDS011;65903;51.452;7.198;2023-08-12T04:11:46;18.88;;;13.20;;
76964;SDS011;65903;51.452;7.198;2023-08-12T04:12:47;19.55;;;13.55;;
76964;SDS011;65903;51.452;7.198;2023-08-12T04:13:49;19.77;;;12.68;;
76964;SDS011;65903;51.452;7.198;2023-08-12T04:14:50;20.65;;;14.48;;
76964;SDS011;65903;51.452;7.198;2023-08-12T04:15:51;18.10;;;13.95;;
76964;SDS011;65903;51.452;7.198;2023-08-12T04:16:53;18.60;;;12.57;;
76964;SDS011;65903;51.452;7.198;2023-08-12T04:17:54;25.40;;;14.35;;
76964;SDS011;65903;51.452;7.198;2023-08-12T04:18:56;19.98;;;13.50;;
76964;SDS011;65903;51.452;7.198;2023-08-12T04:19:58;17.65;;;13.07;;
76964;SDS011;65903;51.452;7.198;2023-08-12T04:20:58;18.13;;;12.48;;
76964;SDS011;65903;51.452;7.198;2023-08-12T04:21:59;21.90;;;13.63;;
76964;SDS011;65903;51.452;7.198;2023-08-12T04:22:59;18.58;;;12.73;;
76964;SDS011;65903;51.452;7.198;2023-08-12T04:24:00;21.20;;;14.10;;
76964;SDS011;65903;51.452;7.198;2023-08-12T04:25:02;20.85;;;14.82;;
76964;SDS011;65903;51.452;7.198;2023-08-12T04:26:03;18.35;;;13.18;;
76964;SDS011;65903;51.452;7.198;2023-08-12T04:27:04;19.75;;;13.70;;
76964;SDS011;65903;51.452;7.198;2023-08-12T04:28:04;21.25;;;13.90;;
76964;SDS011;65903;51.452;7.198;2023-08-12T04:29:05;21.20;;;14.10;;
76964;SDS011;65903;51.452;7.198;2023-08-12T04:30:06;19.38;;;12.68;;
76964;SDS011;65903;51.452;7.198;2023-08-12T04:31:08;22.42;;;15.38;;
76964;SDS011;65903;51.452;7.198;2023-08-12T04:32:09;20.23;;;13.48;;
76964;SDS011;65903;51.452;7.198;2023-08-12T04:33:10;19.83;;;13.18;;
76964;SDS011;65903;51.452;7.198;2023-08-12T04:34:12;19.20;;;13.13;;
76964;SDS011;65903;51.452;7.198;2023-08-12T04:35:14;19.23;;;13.07;;
76964;SDS011;65903;51.452;7.198;2023-08-12T04:36:17;19.90;;;14.00;;
76964;SDS011;65903;51.452;7.198;2023-08-12T04:37:18;18.63;;;13.00;;
76964;SDS011;65903;51.452;7.198;2023-08-12T04:38:19;18.55;;;12.45;;
76964;SDS011;65903;51.452;7.198;2023-08-12T04:39:20;19.20;;;13.20;;
76964;SDS011;65903;51.452;7.198;2023-08-12T04:40:22;17.70;;;12.43;;
76964;SDS011;65903;51.452;7.198;2023-08-12T04:41:23;17.92;;;13.73;;
76964;SDS011;65903;51.452;7.198;2023-08-12T04:42:24;18.98;;;11.77;;
76964;SDS011;65903;51.452;7.198;2023-08-12T04:43:25;16.50;;;11.95;;
76964;SDS011;65903;51.452;7.198;2023-08-12T04:44:26;19.10;;;12.73;;
76964;SDS011;65903;51.452;7.198;2023-08-12T04:45:27;19.38;;;12.30;;
76964;SDS011;65903;51.452;7.198;2023-08-12T04:46:28;21.15;;;13.80;;
76964;SDS011;65903;51.452;7.198;2023-08-12T04:47:30;20.42;;;13.73;;
76964;SDS011;65903;51.452;7.198;2023-08-12T04:48:31;18.10;;;13.80;;
76964;SDS011;65903;51.452;7.198;2023-08-12T04:49:32;17.90;;;13.48;;
76964;SDS011;65903;51.452;7.198;2023-08-12T04:50:33;20.02;;;13.45;;
76964;SDS011;65903;51.452;7.198;2023-08-12T04:51:36;18.85;;;13.20;;
76964;SDS011;65903;51.452;7.198;2023-08-12T04:52:37;18.73;;;12.63;;
76964;SDS011;65903;51.452;7.198;2023-08-12T04:53:38;18.27;;;12.43;;
76964;SDS011;65903;51.452;7.198;2023-08-12T04:54:39;20.42;;;13.70;;
76964;SDS011;65903;51.452;7.198;2023-08-12T04:55:40;17.67;;;11.57;;
76964;SDS011;65903;51.452;7.198;2023-08-12T04:56:41;16.33;;;12.00;;
76964;SDS011;65903;51.452;7.198;2023-08-12T04:57:42;17.48;;;11.98;;
76964;SDS011;65903;51.452;7.198;2023-08-12T04:58:43;15.63;;;12.95;;
76964;SDS011;65903;51.452;7.198;2023-08-12T04:59:44;17.23;;;11.50;;
76964;SDS011;65903;51.452;7.198;2023-08-12T05:00:45;18.63;;;13.25;;
76964;SDS011;65903;51.452;7.198;2023-08-12T05:01:46;17.85;;;12.00;;
76964;SDS011;65903;51.452;7.198;2023-08-12T05:02:48;17.40;;;12.32;;
76964;SDS011;65903;51.452;7.198;2023-08-12T05:03:49;15.40;;;10.80;;
76964;SDS011;65903;51.452;7.198;2023-08-12T05:04:51;19.65;;;11.85;;
76964;SDS011;65903;51.452;7.198;2023-08-12T05:05:52;14.73;;;11.07;;
76964;SDS011;65903;51.452;7.198;2023-08-12T05:06:53;16.55;;;11.25;;
76964;SDS011;65903;51.452;7.198;2023-08-12T05:07:54;16.85;;;11.27;;
76964;SDS011;65903;51.452;7.198;2023-08-12T05:08:56;19.63;;;13.07;;
76964;SDS011;65903;51.452;7.198;2023-08-12T05:09:58;16.45;;;10.75;;
76964;SDS011;65903;51.452;7.198;2023-08-12T05:10:59;15.98;;;11.82;;
76964;SDS011;65903;51.452;7.198;2023-08-12T05:12:01;15.68;;;10.93;;
76964;SDS011;65903;51.452;7.198;2023-08-12T05:13:02;16.63;;;11.73;;
76964;SDS011;65903;51.452;7.198;2023-08-12T05:14:03;15.13;;;10.90;;
76964;SDS011;65903;51.452;7.198;2023-08-12T05:15:04;16.63;;;10.20;;
76964;SDS011;65903;51.452;7.198;2023-08-12T05:16:06;15.20;;;10.90;;
76964;SDS011;65903;51.452;7.198;2023-08-12T05:17:07;19.10;;;12.23;;
76964;SDS011;65903;51.452;7.198;2023-08-12T05:18:08;16.70;;;11.60;;
76964;SDS011;65903;51.452;7.198;2023-08-12T05:19:10;15.65;;;11.48;;
76964;SDS011;65903;51.452;7.198;2023-08-12T05:20:11;17.60;;;10.95;;
76964;SDS011;65903;51.452;7.198;2023-08-12T05:21:11;15.90;;;10.75;;
76964;SDS011;65903;51.452;7.198;2023-08-12T05:22:12;16.92;;;10.98;;
76964;SDS011;65903;51.452;7.198;2023-08-12T05:23:13;13.65;;;10.90;;
76964;SDS011;65903;51.452;7.198;2023-08-12T05:24:14;16.77;;;11.07;;
76964;SDS011;65903;51.452;7.198;2023-08-12T05:25:16;11.80;;;9.27;;
76964;SDS011;65903;51.452;7.198;2023-08-12T05:26:17;14.23;;;10.80;;
76964;SDS011;65903;51.452;7.198;2023-08-12T05:27:18;14.48;;;10.00;;
76964;SDS011;65903;51.452;7.198;2023-08-12T05:28:19;16.70;;;10.00;;
76964;SDS011;65903;51.452;7.198;2023-08-12T05:29:20;16.23;;;11.02;;
76964;SDS011;65903;51.452;7.198;2023-08-12T05:30:21;16.02;;;10.63;;
76964;SDS011;65903;51.452;7.198;2023-08-12T05:31:23;13.88;;;10.75;;
76964;SDS011;65903;51.452;7.198;2023-08-12T05:32:24;12.93;;;9.18;;
76964;SDS011;65903;51.452;7.198;2023-08-12T05:33:26;15.15;;;8.70;;
76964;SDS011;65903;51.452;7.198;2023-08-12T05:34:27;13.63;;;9.55;;
76964;SDS011;65903;51.452;7.198;2023-08-12T05:35:28;14.82;;;10.40;;
76964;SDS011;65903;51.452;7.198;2023-08-12T05:36:29;14.48;;;10.85;;
76964;SDS011;65903;51.452;7.198;2023-08-12T05:37:30;11.95;;;8.82;;
76964;SDS011;65903;51.452;7.198;2023-08-12T05:38:31;12.90;;;9.07;;
76964;SDS011;65903;51.452;7.198;2023-08-12T05:39:33;13.48;;;9.25;;
76964;SDS011;65903;51.452;7.198;2023-08-12T05:40:34;12.52;;;9.60;;
76964;SDS011;65903;51.452;7.198;2023-08-12T05:41:35;12.75;;;9.30;;
76964;SDS011;65903;51.452;7.198;2023-08-12T05:42:36;14.05;;;8.68;;
76964;SDS011;65903;51.452;7.198;2023-08-12T05:43:38;11.50;;;8.38;;
76964;SDS011;65903;51.452;7.198;2023-08-12T05:44:40;10.27;;;7.85;;
76964;SDS011;65903;51.452;7.198;2023-08-12T05:45:42;15.43;;;9.30;;
76964;SDS011;65903;51.452;7.198;2023-08-12T05:46:44;11.63;;;9.70;;
76964;SDS011;65903;51.452;7.198;2023-08-12T05:47:45;13.15;;;9.88;;
76964;SDS011;65903;51.452;7.198;2023-08-12T05:48:46;12.48;;;8.85;;
76964;SDS011;65903;51.452;7.198;2023-08-12T05:49:47;17.33;;;10.13;;
76964;SDS011;65903;51.452;7.198;2023-08-12T05:50:48;14.32;;;9.55;;
76964;SDS011;65903;51.452;7.198;2023-08-12T05:51:50;12.32;;;9.73;;
76964;SDS011;65903;51.452;7.198;2023-08-12T05:52:51;13.93;;;9.30;;
76964;SDS011;65903;51.452;7.198;2023-08-12T05:53:52;13.45;;;8.57;;
76964;SDS011;65903;51.452;7.198;2023-08-12T05:54:53;12.25;;;8.30;;
76964;SDS011;65903;51.452;7.198;2023-08-12T05:55:55;12.68;;;9.18;;
76964;SDS011;65903;51.452;7.198;2023-08-12T05:56:55;10.57;;;8.80;;
76964;SDS011;65903;51.452;7.198;2023-08-12T05:57:56;14.88;;;10.30;;
76964;SDS011;65903;51.452;7.198;2023-08-12T05:58:57;11.85;;;8.88;;
76964;SDS011;65903;51.452;7.198;2023-08-12T05:59:58;12.68;;;8.40;;
76964;SDS011;65903;51.452;7.198;2023-08-12T06:01:00;12.40;;;7.95;;
76964;SDS011;65903;51.452;7.198;2023-08-12T06:02:01;14.65;;;9.02;;
76964;SDS011;65903;51.452;7.198;2023-08-12T06:03:02;13.95;;;8.23;;
76964;SDS011;65903;51.452;7.198;2023-08-12T06:04:03;11.85;;;9.27;;